Altus Air Force Base


Codes: KLTS/
Name: Altus Air Force Base
City: Altus
Country: United States
Elevation: 1382 ft.

Photos at Altus Air Force Base


   Photos courtesy of SpottingLog. You can add your own sightings and photos by signing up for a free trial today.



No photos found.

Weather at Altus Air Force Base


Time (UTC)DescriptionTempratureWindCloud coverageVisibilityPressureHumidity
21-Feb-2024 03:00Clear Sky17°C7 mph, S10%10000m1015hPa45%
21-Feb-2024 06:00Few Clouds15°C4 mph, SW24%10000m1015hPa37%
21-Feb-2024 09:00Few Clouds13°C7 mph, SW24%10000m1014hPa34%
21-Feb-2024 12:00Broken Clouds12°C7 mph, SW61%10000m1014hPa33%
21-Feb-2024 15:00Overcast Clouds14°C7 mph, SW99%10000m1014hPa36%
21-Feb-2024 18:00Overcast Clouds22°C9 mph, SW100%10000m1012hPa23%
21-Feb-2024 21:00Overcast Clouds26°C13 mph, SW100%10000m1007hPa24%
22-Feb-2024 00:00Overcast Clouds22°C9 mph, S89%10000m1005hPa42%
22-Feb-2024 03:00Clear Sky19°C13 mph, SW1%10000m1005hPa32%
22-Feb-2024 06:00Clear Sky19°C20 mph, W1%10000m1005hPa17%
22-Feb-2024 09:00Scattered Clouds14°C11 mph, W32%10000m1006hPa27%
22-Feb-2024 12:00Scattered Clouds13°C11 mph, W30%10000m1007hPa32%
22-Feb-2024 15:00Clear Sky13°C16 mph, N0%10000m1011hPa42%
22-Feb-2024 18:00Few Clouds18°C22 mph, N16%10000m1012hPa40%
22-Feb-2024 21:00Broken Clouds20°C18 mph, N57%10000m1012hPa34%
23-Feb-2024 00:00Scattered Clouds17°C11 mph, N37%10000m1013hPa44%
23-Feb-2024 03:00Clear Sky13°C7 mph, N9%10000m1016hPa53%
23-Feb-2024 06:00Clear Sky11°C7 mph, N9%10000m1017hPa58%
23-Feb-2024 09:00Clear Sky10°C4 mph, N4%10000m1017hPa58%
23-Feb-2024 12:00Few Clouds8°C2 mph, NW11%10000m1018hPa60%
23-Feb-2024 15:00Clear Sky12°C7 mph, W8%10000m1019hPa51%
23-Feb-2024 18:00Scattered Clouds18°C9 mph, W29%10000m1018hPa33%
23-Feb-2024 21:00Clear Sky20°C7 mph, W9%10000m1015hPa25%
24-Feb-2024 00:00Clear Sky17°C4 mph, SW7%10000m1015hPa35%
24-Feb-2024 03:00Clear Sky14°C2 mph, S3%10000m1017hPa38%
24-Feb-2024 06:00Clear Sky12°C4 mph, NE10%10000m1018hPa44%
24-Feb-2024 09:00Scattered Clouds11°C4 mph, NE27%10000m1019hPa43%
24-Feb-2024 12:00Few Clouds10°C4 mph, E14%10000m1019hPa43%
24-Feb-2024 15:00Clear Sky13°C7 mph, SE0%10000m1020hPa47%
24-Feb-2024 18:00Clear Sky19°C11 mph, S2%10000m1019hPa33%
24-Feb-2024 21:00Broken Clouds22°C13 mph, S72%10000m1015hPa32%
25-Feb-2024 00:00Broken Clouds20°C9 mph, S61%10000m1012hPa41%
25-Feb-2024 03:00Overcast Clouds16°C9 mph, S85%10000m1013hPa45%
25-Feb-2024 06:00Overcast Clouds17°C16 mph, S85%10000m1011hPa43%
25-Feb-2024 09:00Few Clouds15°C16 mph, S18%10000m1010hPa54%
25-Feb-2024 12:00Scattered Clouds14°C16 mph, S29%10000m1008hPa58%
25-Feb-2024 15:00Broken Clouds16°C16 mph, SW66%10000m1009hPa60%
25-Feb-2024 18:00Broken Clouds23°C11 mph, W59%10000m1007hPa22%
25-Feb-2024 21:00Few Clouds26°C11 mph, W16%10000m1005hPa16%
26-Feb-2024 00:00Clear Sky22°C7 mph, N9%10000m1006hPa27%